Time;durP1;ratioP1;P1;durP2;ratioP2;P2;SDS_P1;SDS_P2;PMS_P1;PMS_P2;Temp;Humidity;BMP_temperature;BMP_pressure;BME280_temperature;BME280_humidity;BME280_pressure;Samples;Min_cycle;Max_cycle;Signal;HPM_P1;HPM_P2
2022/04/30 00:00:04;;;;;;;0.00;0.00;;;;;;;13.48;48.52;102574.34;7355293;19;20006;-63
2022/04/30 00:02:30;;;;;;;0.10;0.10;;;;;;;13.56;47.69;102583.06;7356320;19;20032;-63
2022/04/30 00:04:55;;;;;;;0.00;0.00;;;;;;;13.57;48.21;102584.81;7355802;19;20010;-62
2022/04/30 00:07:21;;;;;;;0.03;0.03;;;;;;;13.57;48.45;102579.56;7361786;19;20010;-63
2022/04/30 00:09:48;;;;;;;0.00;0.00;;;;;;;13.58;48.03;102576.03;7349467;19;20803;-64
2022/04/30 00:12:15;;;;;;;0.00;0.00;;;;;;;13.58;48.17;102578.66;7361550;19;20030;-63
2022/04/30 00:14:40;;;;;;;0.00;0.00;;;;;;;13.60;48.06;102583.94;7354522;19;20007;-64
2022/04/30 00:17:06;;;;;;;0.00;0.00;;;;;;;13.48;48.37;102561.22;7358585;19;20022;-64
2022/04/30 00:19:32;;;;;;;0.00;0.00;;;;;;;13.58;48.94;102581.28;7360102;19;20010;-64
2022/04/30 00:21:57;;;;;;;0.00;0.00;;;;;;;13.58;48.76;102573.41;7345360;19;20018;-63
2022/04/30 00:24:24;;;;;;;0.00;0.00;;;;;;;13.58;48.92;102565.53;7359290;19;20011;-63
2022/04/30 00:26:50;;;;;;;0.00;0.00;;;;;;;13.52;48.63;102551.59;7361341;19;20018;-63
2022/04/30 00:29:16;;;;;;;0.00;0.00;;;;;;;13.57;48.63;102561.19;7357695;19;20025;-63
2022/04/30 00:31:42;;;;;;;0.00;0.00;;;;;;;13.58;48.47;102560.28;7350174;19;20683;-63
2022/04/30 00:34:07;;;;;;;0.00;0.00;;;;;;;13.47;48.13;102535.88;7355432;19;20020;-61
2022/04/30 00:36:33;;;;;;;0.10;0.10;;;;;;;13.55;48.04;102549.84;7357470;19;20014;-64
2022/04/30 00:38:59;;;;;;;0.00;0.00;;;;;;;13.55;48.91;102549.84;7359332;19;20007;-64
2022/04/30 00:41:24;;;;;;;0.00;0.00;;;;;;;13.55;48.67;102547.22;7339074;19;20006;-63
2022/04/30 00:43:51;;;;;;;0.00;0.00;;;;;;;13.55;49.09;102544.59;7360459;19;20010;-63
2022/04/30 00:46:19;;;;;;;0.00;0.00;;;;;;;13.55;49.07;102539.34;7351561;19;20497;-63
2022/04/30 00:48:45;;;;;;;0.00;0.00;;;;;;;13.55;49.12;102546.34;7355099;19;20462;-63
2022/04/30 00:51:15;;;;;;;0.00;0.00;;;;;;;13.52;48.24;102539.34;7346540;19;20010;-64
2022/04/30 00:53:44;;;;;;;0.00;0.00;;;;;;;13.41;48.68;102526.28;7354410;19;20758;-63
2022/04/30 00:56:11;;;;;;;0.00;0.00;;;;;;;13.53;49.02;102543.69;7349353;19;20098;-62
2022/04/30 00:58:40;;;;;;;0.00;0.00;;;;;;;13.52;47.86;102549.84;7360440;19;20873;-63
2022/04/30 01:01:06;;;;;;;0.10;0.10;;;;;;;13.50;48.85;102535.84;7353795;19;20022;-63
2022/04/30 01:03:31;;;;;;;0.00;0.00;;;;;;;13.50;48.81;102541.09;7354045;19;20045;-62
2022/04/30 01:05:58;;;;;;;0.00;0.00;;;;;;;13.49;48.66;102542.00;7351539;19;20045;-63
2022/04/30 01:08:29;;;;;;;0.05;0.05;;;;;;;13.50;48.80;102535.84;7357298;19;20038;-63
2022/04/30 01:11:00;;;;;;;0.00;0.00;;;;;;;13.49;49.33;102529.75;7359391;19;20015;-63
2022/04/30 01:13:32;;;;;;;0.10;0.10;;;;;;;13.48;48.43;102524.47;7351251;19;20010;-63
2022/04/30 01:15:58;;;;;;;0.00;0.00;;;;;;;13.48;49.33;102527.09;7358444;19;20010;-64
2022/04/30 01:18:26;;;;;;;0.00;0.00;;;;;;;13.49;49.59;102526.25;7341061;19;20034;-63
2022/04/30 01:20:54;;;;;;;0.00;0.00;;;;;;;13.47;49.25;102525.38;7358363;19;20002;-63
2022/04/30 01:23:21;;;;;;;0.00;0.00;;;;;;;13.48;49.45;102532.34;7354830;19;20081;-63
2022/04/30 01:25:47;;;;;;;0.00;0.00;;;;;;;13.47;49.53;102517.50;7353456;19;20350;-63
2022/04/30 01:28:14;;;;;;;0.00;0.00;;;;;;;13.46;49.69;102524.50;7357373;19;20039;-63
2022/04/30 01:30:39;;;;;;;0.00;0.00;;;;;;;13.43;49.45;102515.75;7360778;19;20589;-63
2022/04/30 01:38:33;;;;;;;0.00;0.00;;;;;;;13.44;49.58;102514.91;7358450;19;20013;-64
2022/04/30 01:40:59;;;;;;;0.00;0.00;;;;;;;13.31;49.55;102497.47;7357281;19;20010;-63
2022/04/30 01:43:26;;;;;;;0.05;0.05;;;;;;;13.42;49.59;102512.28;7360576;19;20018;-63
2022/04/30 01:45:53;;;;;;;0.00;0.00;;;;;;;13.43;49.33;102507.88;7352402;19;20014;-63
2022/04/30 01:48:19;;;;;;;0.00;0.00;;;;;;;13.41;49.32;102507.03;7360085;19;20810;-63
2022/04/30 01:50:45;;;;;;;0.00;0.00;;;;;;;13.41;49.88;102509.66;7358904;19;20446;-63
2022/04/30 01:53:11;;;;;;;0.03;0.03;;;;;;;13.39;50.07;102499.19;7359943;19;20006;-63
2022/04/30 01:55:37;;;;;;;0.00;0.00;;;;;;;13.39;50.30;102506.19;7360156;19;20014;-63
2022/04/30 01:58:04;;;;;;;0.10;0.10;;;;;;;13.37;50.13;102507.94;7359804;19;20025;-64
2022/04/30 02:00:30;;;;;;;0.08;0.08;;;;;;;13.25;50.18;102477.41;7349864;19;20352;-63
2022/04/30 02:03:01;;;;;;;0.00;0.00;;;;;;;13.36;49.90;102500.94;7362332;19;20050;-62
2022/04/30 02:05:27;;;;;;;0.00;0.00;;;;;;;13.30;49.85;102496.59;7349339;19;20082;-63
2022/04/30 02:07:57;;;;;;;0.00;0.00;;;;;;;13.35;49.38;102500.06;7364763;19;20150;-63
2022/04/30 02:10:24;;;;;;;0.00;0.00;;;;;;;13.20;50.29;102473.88;7363093;19;20010;-63
2022/04/30 02:12:50;;;;;;;0.00;0.00;;;;;;;13.32;50.41;102489.59;7356097;19;20038;-62
2022/04/30 02:15:17;;;;;;;0.00;0.00;;;;;;;13.31;50.54;102492.22;7362791;19;20044;-63
2022/04/30 02:17:46;;;;;;;0.00;0.00;;;;;;;13.29;50.67;102491.38;7351339;19;20010;-61
2022/04/30 02:20:18;;;;;;;0.00;0.00;;;;;;;13.27;50.83;102485.25;7355761;19;20026;-63
2022/04/30 02:22:44;;;;;;;0.00;0.00;;;;;;;13.24;50.93;102481.78;7352846;19;20018;-62
2022/04/30 02:25:12;;;;;;;0.00;0.00;;;;;;;13.23;50.53;102480.03;7362243;19;20022;-63
2022/04/30 02:27:43;;;;;;;0.00;0.00;;;;;;;13.22;50.81;102477.41;7357102;19;20038;-64
2022/04/30 02:30:14;;;;;;;0.00;0.00;;;;;;;13.22;50.73;102478.25;7360213;19;20856;-64
2022/04/30 02:32:52;;;;;;;0.00;0.00;;;;;;;13.21;50.24;102473.00;7361062;19;20013;-63
2022/04/30 02:35:20;;;;;;;0.00;0.00;;;;;;;13.19;50.97;102474.78;7357355;19;20007;-63
2022/04/30 02:37:49;;;;;;;0.00;0.00;;;;;;;13.18;50.35;102466.03;7360639;19;20014;-63
2022/04/30 02:40:16;;;;;;;0.00;0.00;;;;;;;13.11;51.16;102464.31;7358747;19;20543;-64
2022/04/30 02:42:44;;;;;;;0.00;0.00;;;;;;;13.08;51.41;102453.84;7356275;19;20021;-63
2022/04/30 02:45:13;;;;;;;0.00;0.00;;;;;;;13.17;51.20;102472.13;7358279;19;20042;-63
2022/04/30 02:47:41;;;;;;;0.00;0.00;;;;;;;13.18;51.43;102470.41;7362149;19;20030;-60
2022/04/30 02:50:08;;;;;;;0.00;0.00;;;;;;;13.10;51.57;102452.06;7362620;19;20764;-63
2022/04/30 02:52:35;;;;;;;0.00;0.00;;;;;;;13.06;51.52;102439.84;7359108;19;20019;-63
2022/04/30 02:55:01;;;;;;;0.00;0.00;;;;;;;13.17;51.66;102459.03;7363226;19;20522;-64
2022/04/30 02:59:53;;;;;;;0.00;0.00;;;;;;;13.19;50.62;102454.66;7355518;19;20018;-64
2022/04/30 03:00:29;;;;;;;0.00;0.00;;;;;;;13.17;51.45;102459.03;7255093;19;2004298;-61
2022/04/30 03:02:56;;;;;;;0.00;0.00;;;;;;;13.17;51.42;102459.03;7362182;19;20014;-64
2022/04/30 03:05:22;;;;;;;0.00;0.00;;;;;;;13.06;51.53;102437.22;7357069;19;20002;-63
2022/04/30 03:07:47;;;;;;;0.00;0.00;;;;;;;13.15;51.92;102455.53;7345256;19;20012;-64
2022/04/30 03:10:14;;;;;;;0.00;0.00;;;;;;;13.12;51.94;102445.06;7357368;19;20876;-62
2022/04/30 03:12:39;;;;;;;0.00;0.00;;;;;;;13.13;51.77;102452.06;7356880;19;20003;-63
2022/04/30 03:15:06;;;;;;;0.00;0.00;;;;;;;13.13;51.89;102441.59;7359514;19;20014;-64
2022/04/30 03:23:00;;;;;;;0.00;0.00;;;;;;;13.11;52.04;102443.31;7361410;19;20021;-64
2022/04/30 03:25:25;;;;;;;0.03;0.03;;;;;;;13.06;52.03;102439.84;7363420;19;20010;-63
2022/04/30 03:27:51;;;;;;;0.00;0.00;;;;;;;13.11;52.24;102438.06;7363300;19;20014;-64
2022/04/30 03:30:16;;;;;;;0.10;0.10;;;;;;;13.11;52.23;102442.44;7353164;19;21124;-63
2022/04/30 03:32:42;;;;;;;0.00;0.00;;;;;;;13.09;52.19;102442.47;7365128;19;20021;-63
2022/04/30 03:35:09;;;;;;;0.00;0.00;;;;;;;13.10;51.93;102441.59;7365755;19;20479;-63
2022/04/30 03:37:35;;;;;;;0.00;0.00;;;;;;;13.00;52.35;102421.53;7345274;19;20010;-62
2022/04/30 03:40:00;;;;;;;0.00;0.00;;;;;;;12.97;52.39;102413.66;7353718;19;20415;-64
2022/04/30 03:42:26;;;;;;;0.10;0.10;;;;;;;13.00;52.21;102418.91;7364006;19;20025;-63
2022/04/30 03:44:53;;;;;;;0.00;0.00;;;;;;;13.07;52.34;102430.22;7363713;19;20007;-64
2022/04/30 03:47:20;;;;;;;0.00;0.00;;;;;;;13.01;52.12;102415.41;7364131;19;20043;-63
2022/04/30 03:49:45;;;;;;;0.00;0.00;;;;;;;13.03;52.55;102424.16;7356603;19;20026;-63
2022/04/30 03:52:11;;;;;;;0.00;0.00;;;;;;;13.04;51.39;102420.63;7358183;19;20046;-63
2022/04/30 03:54:37;;;;;;;0.00;0.00;;;;;;;13.03;52.69;102420.63;7362446;19;20101;-62
2022/04/30 03:57:03;;;;;;;0.10;0.10;;;;;;;13.03;51.67;102418.00;7360327;19;20090;-62
2022/04/30 03:59:28;;;;;;;0.10;0.10;;;;;;;12.98;52.50;102407.56;7361113;19;20014;-62
2022/04/30 04:01:54;;;;;;;0.00;0.00;;;;;;;12.99;52.54;102410.16;7360332;19;20011;-62
2022/04/30 04:04:19;;;;;;;0.00;0.00;;;;;;;12.97;52.91;102409.28;7362419;19;20841;-62
2022/04/30 04:06:44;;;;;;;0.10;0.10;;;;;;;12.96;52.61;102402.31;7353742;19;20014;-63
2022/04/30 04:09:10;;;;;;;0.00;0.00;;;;;;;12.91;52.83;102392.72;7363307;19;20106;-63
2022/04/30 04:11:35;;;;;;;0.00;0.00;;;;;;;12.94;52.86;102398.84;7355483;19;20014;-63
2022/04/30 04:19:30;;;;;;;0.00;0.00;;;;;;;12.82;52.95;102387.53;7362748;19;20102;-63
2022/04/30 04:21:56;;;;;;;0.00;0.00;;;;;;;12.89;53.13;102402.38;7360303;19;20034;-64
2022/04/30 04:27:06;;;;;;;0.00;0.00;;;;;;;12.76;52.48;102375.31;7362734;19;20021;-63
2022/04/30 04:29:32;;;;;;;0.00;0.00;;;;;;;12.79;53.24;102393.66;7359605;19;20018;-62
2022/04/30 04:31:57;;;;;;;0.00;0.00;;;;;;;12.82;53.67;102398.88;7361306;19;20014;-63
2022/04/30 04:34:23;;;;;;;0.00;0.00;;;;;;;12.74;52.65;102382.34;7353930;19;20010;-63
2022/04/30 04:36:48;;;;;;;0.00;0.00;;;;;;;12.84;52.01;102397.13;7346370;19;20089;-63
2022/04/30 04:39:15;;;;;;;0.00;0.00;;;;;;;12.76;53.44;102382.31;7357459;19;20040;-63
2022/04/30 04:41:42;;;;;;;0.00;0.00;;;;;;;12.83;53.83;102391.91;7360838;19;20507;-64
2022/04/30 04:44:08;;;;;;;0.00;0.00;;;;;;;12.74;54.23;102379.72;7353002;19;20018;-62
2022/04/30 04:46:35;;;;;;;0.00;0.00;;;;;;;12.71;54.23;102372.72;7362003;19;20007;-62
2022/04/30 04:49:01;;;;;;;0.00;0.00;;;;;;;12.82;53.51;102387.53;7360471;19;20703;-63
2022/04/30 04:51:27;;;;;;;0.00;0.00;;;;;;;12.82;53.80;102387.53;7363471;19;20039;-63
2022/04/30 04:53:53;;;;;;;0.00;0.00;;;;;;;12.79;53.44;102383.19;7361554;19;20010;-63
2022/04/30 04:56:19;;;;;;;0.00;0.00;;;;;;;12.83;53.25;102389.28;7357511;19;20011;-63
2022/04/30 04:58:44;;;;;;;0.00;0.00;;;;;;;12.82;53.74;102384.91;7341939;19;20012;-61
2022/04/30 05:01:10;;;;;;;0.00;0.00;;;;;;;12.83;53.77;102389.28;7362239;19;20026;-63
2022/04/30 05:03:35;;;;;;;0.00;0.00;;;;;;;12.83;54.19;102394.53;7362548;19;20044;-64
2022/04/30 05:06:00;;;;;;;0.00;0.00;;;;;;;12.83;54.44;102384.06;7358280;19;20014;-64
2022/04/30 05:08:26;;;;;;;0.10;0.10;;;;;;;12.82;54.65;102387.53;7357426;19;20025;-63
2022/04/30 05:10:51;;;;;;;0.00;0.00;;;;;;;12.73;54.41;102370.97;7360575;19;20046;-64
2022/04/30 05:13:17;;;;;;;0.00;0.00;;;;;;;12.84;54.72;102391.03;7362457;19;20021;-63
2022/04/30 05:15:43;;;;;;;0.00;0.00;;;;;;;12.84;54.35;102388.41;7357859;19;20016;-61
2022/04/30 05:18:08;;;;;;;0.00;0.00;;;;;;;12.85;54.34;102390.16;7362013;19;20587;-63
2022/04/30 05:20:34;;;;;;;0.00;0.00;;;;;;;12.85;54.54;102393.63;7357263;19;20006;-63
2022/04/30 05:22:59;;;;;;;0.00;0.00;;;;;;;12.86;54.29;102394.50;7356334;19;20037;-64
2022/04/30 05:25:25;;;;;;;0.00;0.00;;;;;;;12.86;54.41;102395.38;7358308;19;20007;-64
2022/04/30 05:27:51;;;;;;;0.00;0.00;;;;;;;12.87;54.91;102398.84;7344881;19;20011;-63
2022/04/30 05:30:16;;;;;;;0.00;0.00;;;;;;;12.87;55.01;102394.47;7360014;19;20063;-64
2022/04/30 05:32:41;;;;;;;0.03;0.03;;;;;;;12.89;54.75;102399.75;7360058;19;20760;-63
2022/04/30 05:35:07;;;;;;;0.00;0.00;;;;;;;12.90;54.99;102407.59;7359091;19;20014;-63
2022/04/30 05:37:32;;;;;;;0.10;0.10;;;;;;;12.92;54.58;102404.94;7363155;19;20018;-63
2022/04/30 05:39:58;;;;;;;0.00;0.00;;;;;;;12.94;54.30;102408.47;7353147;19;20025;-64
2022/04/30 05:42:24;;;;;;;0.10;0.10;;;;;;;12.97;54.55;102405.81;7361025;19;20028;-61
2022/04/30 05:44:49;;;;;;;0.10;0.10;;;;;;;12.98;54.16;102411.06;7360895;19;20081;-63
2022/04/30 05:47:16;;;;;;;0.10;0.10;;;;;;;12.97;53.04;102403.19;7346638;19;20078;-64
2022/04/30 05:49:42;;;;;;;0.00;0.00;;;;;;;13.03;53.47;102408.41;7361129;19;20011;-63
2022/04/30 05:52:07;;;;;;;0.00;0.00;;;;;;;13.05;52.84;102409.25;7357872;19;20010;-64
2022/04/30 05:54:33;;;;;;;0.00;0.00;;;;;;;13.06;52.91;102411.00;7351863;19;20014;-64
2022/04/30 05:56:58;;;;;;;0.00;0.00;;;;;;;13.08;53.10;102411.88;7357533;19;20015;-64
2022/04/30 05:59:23;;;;;;;0.00;0.00;;;;;;;13.08;53.57;102416.25;7360373;19;20017;-63
2022/04/30 06:01:49;;;;;;;0.00;0.00;;;;;;;13.05;53.23;102411.03;7351874;19;20003;-64
2022/04/30 06:04:14;;;;;;;0.10;0.10;;;;;;;13.04;54.33;102407.53;7350383;19;20395;-59
2022/04/30 06:06:40;;;;;;;0.00;0.00;;;;;;;13.09;53.04;102412.75;7359187;19;20006;-61
2022/04/30 06:09:05;;;;;;;0.00;0.00;;;;;;;13.06;53.70;102413.63;7357167;19;20021;-64
2022/04/30 06:11:31;;;;;;;0.00;0.00;;;;;;;13.06;53.92;102408.38;7349932;19;20007;-64
2022/04/30 06:13:56;;;;;;;0.00;0.00;;;;;;;13.01;53.79;102404.91;7358264;19;20007;-64
2022/04/30 06:16:21;;;;;;;0.00;0.00;;;;;;;13.00;54.15;102408.41;7358835;19;20382;-63
2022/04/30 06:18:47;;;;;;;0.00;0.00;;;;;;;13.06;53.53;102415.38;7355109;19;20018;-63
2022/04/30 06:21:12;;;;;;;0.00;0.00;;;;;;;13.01;54.45;102410.16;7353242;19;20017;-63
2022/04/30 06:23:38;;;;;;;0.00;0.00;;;;;;;13.05;53.67;102417.13;7356676;19;20026;-64
2022/04/30 06:26:03;;;;;;;0.00;0.00;;;;;;;13.06;54.13;102412.75;7355708;19;20007;-63
2022/04/30 06:28:28;;;;;;;0.00;0.00;;;;;;;12.93;54.33;102401.47;7354826;19;20469;-63
2022/04/30 06:30:54;;;;;;;0.00;0.00;;;;;;;13.06;54.47;102418.88;7358601;19;20121;-63
2022/04/30 06:33:20;;;;;;;0.00;0.00;;;;;;;13.06;55.18;102424.13;7357383;19;20017;-63
2022/04/30 06:35:45;;;;;;;0.00;0.00;;;;;;;13.05;55.24;102418.88;7354761;19;20014;-61
2022/04/30 06:38:11;;;;;;;0.00;0.00;;;;;;;13.05;54.73;102422.38;7354501;19;20126;-64
2022/04/30 06:40:37;;;;;;;0.05;0.05;;;;;;;13.05;54.55;102422.38;7353216;19;20976;-63
2022/04/30 06:43:02;;;;;;;0.00;0.00;;;;;;;13.05;55.04;102422.38;7355536;19;20007;-63
2022/04/30 06:45:28;;;;;;;0.00;0.00;;;;;;;12.93;54.93;102406.72;7357606;19;20010;-62
2022/04/30 06:47:54;;;;;;;0.03;0.03;;;;;;;13.04;54.72;102425.88;7363050;19;20015;-63
2022/04/30 06:50:19;;;;;;;0.00;0.00;;;;;;;13.04;54.79;102433.75;7358545;19;20486;-63
2022/04/30 06:58:12;;;;;;;0.00;0.00;;;;;;;13.00;55.67;102424.16;7361076;19;20017;-63
2022/04/30 07:03:24;;;;;;;0.00;0.00;;;;;;;13.05;56.42;102427.63;7362859;19;20059;-63
2022/04/30 07:06:02;;;;;;;0.00;0.00;;;;;;;13.09;55.62;102442.47;7357698;19;20824;-64
2022/04/30 07:08:28;;;;;;;0.00;0.00;;;;;;;13.08;55.83;102435.50;7362638;19;20027;-63
2022/04/30 07:10:54;;;;;;;0.00;0.00;;;;;;;13.09;56.54;102437.22;7362339;19;20798;-63
2022/04/30 07:13:19;;;;;;;0.00;0.00;;;;;;;13.10;55.67;102436.34;7358882;19;20354;-63
2022/04/30 07:15:44;;;;;;;0.05;0.05;;;;;;;13.09;56.44;102431.97;7363769;19;20006;-63
2022/04/30 07:18:10;;;;;;;0.00;0.00;;;;;;;13.08;56.84;102432.88;7361071;19;20530;-63
2022/04/30 07:20:35;;;;;;;0.00;0.00;;;;;;;13.07;57.10;102436.34;7361058;19;20026;-64
2022/04/30 07:23:01;;;;;;;0.00;0.00;;;;;;;13.03;57.82;102434.66;7357606;19;20010;-63
2022/04/30 07:25:26;;;;;;;0.03;0.03;;;;;;;13.04;58.49;102431.13;7361732;19;20026;-62
2022/04/30 07:27:52;;;;;;;0.10;0.10;;;;;;;12.94;58.47;102413.69;7360629;19;20017;-64
2022/04/30 07:30:17;;;;;;;0.05;0.05;;;;;;;13.04;58.31;102436.38;7359028;19;20009;-63
2022/04/30 07:32:42;;;;;;;0.00;0.00;;;;;;;13.06;58.27;102438.97;7360410;19;20011;-62
2022/04/30 07:35:08;;;;;;;0.00;0.00;;;;;;;13.07;57.80;102425.84;7358803;19;20029;-63
2022/04/30 07:37:34;;;;;;;0.00;0.00;;;;;;;12.98;59.92;102423.31;7362759;19;20006;-62
2022/04/30 07:39:59;;;;;;;0.00;0.00;;;;;;;13.05;59.77;102432.00;7360364;19;20043;-64
2022/04/30 07:42:24;;;;;;;0.00;0.00;;;;;;;13.04;59.32;102433.75;7357997;19;20014;-63
2022/04/30 07:44:50;;;;;;;0.10;0.10;;;;;;;12.93;60.11;102411.97;7353852;19;20006;-62
2022/04/30 07:47:15;;;;;;;0.00;0.00;;;;;;;13.04;60.41;102433.75;7355695;19;20102;-62
2022/04/30 07:49:41;;;;;;;0.05;0.05;;;;;;;13.03;60.31;102434.66;7360392;19;20027;-63
2022/04/30 07:52:07;;;;;;;0.00;0.00;;;;;;;13.04;60.93;102436.38;7355320;19;20034;-63
2022/04/30 07:54:33;;;;;;;0.10;0.10;;;;;;;13.03;60.98;102434.66;7359819;19;20030;-64
2022/04/30 07:57:01;;;;;;;0.00;0.00;;;;;;;13.03;60.77;102432.03;7356653;19;20038;-63
2022/04/30 07:59:28;;;;;;;0.00;0.00;;;;;;;13.01;61.01;102430.28;7358036;19;20094;-63
2022/04/30 08:01:53;;;;;;;0.00;0.00;;;;;;;13.04;60.21;102435.50;7358975;19;20349;-63
2022/04/30 08:04:19;;;;;;;0.00;0.00;;;;;;;13.03;60.55;102439.88;7347878;19;20911;-63
2022/04/30 08:06:45;;;;;;;0.00;0.00;;;;;;;13.02;60.98;102438.13;7356396;19;20024;-64
2022/04/30 08:09:10;;;;;;;0.00;0.00;;;;;;;13.03;61.09;102433.75;7356374;19;20043;-63
2022/04/30 08:11:36;;;;;;;0.10;0.10;;;;;;;13.02;61.64;102442.50;7358916;19;20023;-63
2022/04/30 08:14:01;;;;;;;0.00;0.00;;;;;;;13.00;62.21;102439.88;7358290;19;20010;-64
2022/04/30 08:16:29;;;;;;;0.00;0.00;;;;;;;13.00;61.28;102434.66;7356578;19;20016;-63
2022/04/30 08:18:57;;;;;;;0.10;0.10;;;;;;;12.99;60.79;102438.16;7362390;19;20828;-62
2022/04/30 08:21:22;;;;;;;0.00;0.00;;;;;;;13.01;61.13;102441.63;7351062;19;20014;-63
2022/04/30 08:23:48;;;;;;;0.10;0.10;;;;;;;12.99;62.53;102433.78;7354284;19;20017;-64
2022/04/30 08:26:13;;;;;;;0.05;0.05;;;;;;;13.01;61.06;102439.00;7355459;19;20044;-63
2022/04/30 08:28:38;;;;;;;0.00;0.00;;;;;;;13.00;62.58;102429.41;7353568;19;20016;-63
2022/04/30 08:31:04;;;;;;;0.03;0.03;;;;;;;13.01;62.67;102431.13;7350419;19;20026;-63
2022/04/30 08:33:29;;;;;;;0.00;0.00;;;;;;;13.00;63.12;102421.53;7348146;19;20013;-63
2022/04/30 08:35:56;;;;;;;0.00;0.00;;;;;;;13.04;63.17;102435.50;7354093;19;20010;-63
2022/04/30 08:38:21;;;;;;;0.00;0.00;;;;;;;13.04;62.93;102423.25;7353146;19;20010;-63
2022/04/30 08:40:47;;;;;;;0.00;0.00;;;;;;;12.99;63.58;102418.03;7355786;19;20021;-62
2022/04/30 08:43:15;;;;;;;0.00;0.00;;;;;;;13.05;63.58;102427.63;7353761;19;20089;-63
2022/04/30 08:45:43;;;;;;;0.00;0.00;;;;;;;13.05;63.67;102422.38;7351372;19;20006;-62
2022/04/30 08:48:09;;;;;;;;;;;;;;;13.08;57.52;102414.50;7349586;19;20572;-63
2022/04/30 08:50:36;;;;;;;0.00;0.00;;;;;;;13.06;64.08;102418.00;7352988;19;20396;-63
2022/04/30 08:53:02;;;;;;;0.00;0.00;;;;;;;13.05;64.19;102413.66;7358335;19;20018;-64
2022/04/30 08:55:28;;;;;;;0.00;0.00;;;;;;;13.01;63.65;102404.91;7353828;19;20093;-63
2022/04/30 08:57:53;;;;;;;0.00;0.00;;;;;;;13.08;63.59;102419.75;7354962;19;20467;-63
2022/04/30 09:00:19;;;;;;;0.00;0.00;;;;;;;13.09;63.87;102411.00;7358663;19;20022;-61
2022/04/30 09:02:58;;;;;;;0.00;0.00;;;;;;;13.10;64.12;102404.88;7353796;19;20014;-64
2022/04/30 09:05:32;;;;;;;0.00;0.00;;;;;;;13.12;63.19;102418.81;7356480;19;20089;-63
2022/04/30 09:07:59;;;;;;;0.00;0.00;;;;;;;13.11;64.97;102411.84;7345848;19;20011;-63
2022/04/30 09:10:29;;;;;;;0.03;0.03;;;;;;;13.13;64.23;102404.84;7358479;19;20086;-62
2022/04/30 09:13:16;;;;;;;0.00;0.00;;;;;;;13.09;62.39;102392.63;7356200;19;20056;-62
2022/04/30 09:15:44;;;;;;;0.00;0.00;;;;;;;13.17;65.53;102393.44;7356782;19;20017;-63
2022/04/30 09:18:10;;;;;;;0.00;0.00;;;;;;;13.10;65.46;102381.25;7359144;19;20798;-63
2022/04/30 09:20:53;;;;;;;0.00;0.00;;;;;;;13.26;63.00;102389.06;7357047;19;20756;-63
2022/04/30 09:23:31;;;;;;;0.00;0.00;;;;;;;13.31;64.00;102385.53;7358663;19;20034;-64
2022/04/30 09:25:58;;;;;;;0.10;0.10;;;;;;;13.33;65.91;102386.41;7358123;19;20010;-63
2022/04/30 09:28:28;;;;;;;0.10;0.10;;;;;;;13.39;65.05;102386.34;7352458;19;20478;-61
2022/04/30 09:31:11;;;;;;;0.00;0.00;;;;;;;13.46;63.37;102385.41;7343375;19;20017;-63
2022/04/30 09:33:57;;;;;;;0.05;0.05;;;;;;;13.52;61.51;102381.84;7341349;19;20017;-63
2022/04/30 09:39:18;;;;;;;0.10;0.10;;;;;;;13.60;64.65;102374.81;7343793;19;20030;-64
2022/04/30 09:41:44;;;;;;;0.00;0.00;;;;;;;13.62;65.73;102372.16;7348016;19;19999;-63
2022/04/30 09:44:12;;;;;;;0.00;0.00;;;;;;;13.67;65.56;102370.34;7341060;19;20013;-63
2022/04/30 09:46:40;;;;;;;0.10;0.10;;;;;;;13.73;65.87;102368.53;7351769;19;20006;-62
2022/04/30 09:54:38;;;;;;;0.00;0.00;;;;;;;13.89;65.09;102365.78;7355935;19;20094;-62
2022/04/30 09:57:06;;;;;;;0.00;0.00;;;;;;;13.87;65.94;102351.78;7355734;19;20010;-61
2022/04/30 09:59:34;;;;;;;0.00;0.00;;;;;;;13.72;64.64;102309.03;7349525;19;20010;-64
2022/04/30 10:02:03;;;;;;;0.03;0.03;;;;;;;14.05;65.09;102362.13;7356059;19;20105;-62
2022/04/30 10:04:29;;;;;;;0.10;0.10;;;;;;;14.08;65.70;102346.31;7348882;19;20040;-63
2022/04/30 10:06:55;;;;;;;0.00;0.00;;;;;;;14.13;65.19;102349.75;7353087;19;20006;-63
2022/04/30 10:09:52;;;;;;;0.10;0.10;;;;;;;14.26;61.76;102346.13;7358332;19;20006;-63
2022/04/30 10:12:41;;;;;;;;;;;;;;;14.33;59.85;102346.91;7256172;19;2004331;-63
2022/04/30 10:15:28;;;;;;;0.10;0.10;;;;;;;14.42;61.49;102345.94;7345870;19;19926;-64
2022/04/30 10:17:57;;;;;;;0.03;0.03;;;;;;;14.42;64.29;102338.03;7354891;19;20010;-63
2022/04/30 10:20:29;;;;;;;0.00;0.00;;;;;;;14.46;64.73;102337.13;7360935;19;20026;-62
2022/04/30 10:22:59;;;;;;;0.10;0.10;;;;;;;14.48;64.90;102335.38;7363795;19;20066;-63
2022/04/30 10:25:36;;;;;;;0.00;0.00;;;;;;;14.52;63.88;102331.81;7360632;19;20478;-63
2022/04/30 10:28:16;;;;;;;0.03;0.03;;;;;;;14.58;62.45;102336.13;7363638;19;20087;-63
2022/04/30 10:30:43;;;;;;;0.00;0.00;;;;;;;14.58;65.26;102323.84;7358709;19;20010;-64
2022/04/30 10:33:09;;;;;;;0.03;0.03;;;;;;;14.60;64.08;102302.78;7359259;19;20023;-62
2022/04/30 10:35:39;;;;;;;0.00;0.00;;;;;;;14.69;64.94;102314.03;7360963;19;20015;-62
2022/04/30 10:38:12;;;;;;;0.05;0.05;;;;;;;14.67;63.78;102299.19;7362106;19;20973;-63
2022/04/30 10:40:39;;;;;;;0.00;0.00;;;;;;;14.73;65.53;102302.59;7358793;19;19999;-64
2022/04/30 10:43:19;;;;;;;0.00;0.00;;;;;;;14.89;64.27;102307.63;7358280;19;20022;-63
2022/04/30 10:45:45;;;;;;;0.00;0.00;;;;;;;14.92;63.44;102310.22;7355490;19;20006;-63
2022/04/30 10:48:11;;;;;;;0.00;0.00;;;;;;;14.63;63.34;102245.78;7361613;19;20030;-63
2022/04/30 10:50:36;;;;;;;0.00;0.00;;;;;;;15.02;63.75;102306.56;7363489;19;20042;-63
2022/04/30 10:53:03;;;;;;;0.10;0.10;;;;;;;15.06;64.06;102308.25;7364315;19;20010;-63
2022/04/30 10:55:29;;;;;;;0.08;0.08;;;;;;;15.09;63.23;102308.19;7359850;19;20016;-63
2022/04/30 10:57:54;;;;;;;0.10;0.10;;;;;;;15.13;62.55;102301.13;7361927;19;20344;-61
2022/04/30 11:00:23;;;;;;;0.00;0.00;;;;;;;15.18;62.18;102294.03;7354121;19;20015;-63
2022/04/30 11:02:49;;;;;;;0.00;0.00;;;;;;;15.21;62.89;102296.63;7349089;19;20042;-62
2022/04/30 11:05:22;;;;;;;0.00;0.00;;;;;;;15.28;62.92;102292.97;7358320;19;20709;-63
2022/04/30 11:07:48;;;;;;;0.00;0.00;;;;;;;15.20;64.03;102274.66;7355683;19;20598;-63
2022/04/30 11:10:14;;;;;;;0.00;0.00;;;;;;;15.23;64.73;102269.38;7363280;19;20017;-63
2022/04/30 11:12:39;;;;;;;0.00;0.00;;;;;;;15.44;64.98;102285.69;7361153;19;20466;-64
2022/04/30 11:15:05;;;;;;;0.05;0.05;;;;;;;15.53;64.44;102288.16;7363709;19;20012;-63
2022/04/30 11:17:44;;;;;;;0.00;0.00;;;;;;;15.71;61.56;102292.25;7361255;19;20023;-64
2022/04/30 11:20:11;;;;;;;0.10;0.10;;;;;;;15.72;62.51;102289.59;7357661;19;20078;-64
2022/04/30 11:22:36;;;;;;;0.10;0.10;;;;;;;15.68;62.71;102272.13;7359566;19;20026;-64
2022/04/30 11:25:02;;;;;;;0.00;0.00;;;;;;;15.75;61.92;102272.84;7353733;19;20003;-64
2022/04/30 11:27:31;;;;;;;0.10;0.10;;;;;;;15.75;61.85;102276.34;7359333;19;20022;-63
2022/04/30 11:29:57;;;;;;;0.00;0.00;;;;;;;15.67;61.73;102270.38;7355191;19;20006;-64
2022/04/30 11:32:32;;;;;;;0.10;0.10;;;;;;;15.65;61.75;102271.28;7358999;19;20481;-64
2022/04/30 11:35:03;;;;;;;0.00;0.00;;;;;;;15.60;61.25;102263.44;7360188;19;20006;-63
2022/04/30 11:37:39;;;;;;;0.00;0.00;;;;;;;15.53;61.30;102261.81;7356618;19;20007;-61
2022/04/30 11:40:05;;;;;;;0.00;0.00;;;;;;;15.45;63.61;102248.78;7359765;19;20013;-63
2022/04/30 11:42:31;;;;;;;0.00;0.00;;;;;;;15.43;62.38;102255.00;7361271;19;20052;-62
2022/04/30 11:44:56;;;;;;;0.00;0.00;;;;;;;15.29;63.15;102232.41;7360614;19;20102;-63
2022/04/30 11:47:22;;;;;;;0.00;0.00;;;;;;;15.28;62.26;102227.19;7357715;19;20401;-64
2022/04/30 11:49:47;;;;;;;0.10;0.10;;;;;;;15.31;63.57;102241.16;7364389;19;20034;-64
2022/04/30 11:52:14;;;;;;;0.00;0.00;;;;;;;15.29;63.59;102245.56;7359128;19;20447;-64
2022/04/30 11:54:40;;;;;;;0.10;0.10;;;;;;;15.25;63.17;102235.13;7348172;19;20462;-64
2022/04/30 11:57:13;;;;;;;0.00;0.00;;;;;;;15.23;64.02;102242.19;7363795;19;20424;-61
2022/04/30 11:59:40;;;;;;;0.03;0.03;;;;;;;15.19;63.91;102230.84;7361054;19;20090;-63
2022/04/30 12:02:11;;;;;;;0.00;0.00;;;;;;;15.20;62.97;102237.84;7357445;19;20013;-64